Terminal Aerodrome Forecast
Issued by NWS

Home | Current Version | Previous Version | Text Only | Print | Product List | Glossary Off
Versions: 1 2 3 4 5 6 7 8 9 10 11 12 13 14 15 16

000
FTUS43 KMPX 252300 RRA
TAFRWF
TAF
KRWF 252347Z 2600/2624 20004KT P6SM SCT025 OVC035
     FM260400 VRB03KT P6SM SKC
     FM261400 22005KT P6SM SCT120
     FM262000 26009KT P6SM SCT050=

USA.gov is the U.S. government's official web portal to all federal, state and local government web resources and services.